Time;durP1;ratioP1;P1;durP2;ratioP2;P2;SDS_P1;SDS_P2;PMS_P1;PMS_P2;Temp;Humidity;BMP_temperature;BMP_pressure;BME280_temperature;BME280_humidity;BME280_pressure;Samples;Min_cycle;Max_cycle;Signal;HPM_P1;HPM_P2
2024/03/08 00:02:23;;;;;;;;;;;;;;;21.31;30.35;101382.27;104399;1295;60550;-84
2024/03/08 00:04:49;;;;;;;;;;;;;;;21.31;30.44;101382.10;104448;1295;60483;-84
2024/03/08 00:07:14;;;;;;;;;;;;;;;21.31;30.33;101380.30;104424;1294;60560;-83
2024/03/08 00:09:40;;;;;;;;;;;;;;;21.32;30.38;101378.64;104298;1294;60582;-83
2024/03/08 00:12:06;;;;;;;;;;;;;;;21.31;30.44;101376.34;104210;1294;60495;-84
2024/03/08 00:14:33;;;;;;;;;;;;;;;21.31;30.29;101377.95;104321;1294;60543;-84
2024/03/08 00:16:59;;;;;;;;;;;;;;;21.32;30.40;101374.73;104511;1294;60541;-84
2024/03/08 00:19:25;;;;;;;;;;;;;;;21.32;30.47;101372.91;104479;1294;60666;-84
2024/03/08 00:21:50;;;;;;;;;;;;;;;21.32;30.43;101367.91;104625;1294;60488;-84
2024/03/08 00:24:16;;;;;;;;;;;;;;;21.32;30.33;101368.23;104439;1299;60683;-84
2024/03/08 00:26:43;;;;;;;;;;;;;;;21.32;30.43;101363.58;104423;1294;71560;-84
2024/03/08 00:29:08;;;;;;;;;;;;;;;21.32;30.25;101360.88;104404;1294;60560;-84
2024/03/08 00:31:35;;;;;;;;;;;;;;;21.32;30.49;101360.51;104256;1294;60476;-84
2024/03/08 00:34:00;;;;;;;;;;;;;;;21.33;30.42;101359.08;104433;1294;60505;-84
2024/03/08 00:36:26;;;;;;;;;;;;;;;21.32;30.42;101352.48;104361;1294;60587;-83
2024/03/08 00:38:52;;;;;;;;;;;;;;;21.32;30.37;101353.53;104251;1294;60591;-83
2024/03/08 00:41:18;;;;;;;;;;;;;;;21.33;30.39;101345.09;104486;1294;60573;-84
2024/03/08 00:43:43;;;;;;;;;;;;;;;21.33;30.39;101346.68;104377;1294;60779;-83
2024/03/08 00:46:09;;;;;;;;;;;;;;;21.32;30.40;101343.84;104330;1299;72397;-83
2024/03/08 00:48:37;;;;;;;;;;;;;;;21.33;30.31;101344.53;104759;1294;60460;-84
2024/03/08 00:51:03;;;;;;;;;;;;;;;21.33;30.49;101345.96;104327;1294;60506;-84
2024/03/08 00:53:28;;;;;;;;;;;;;;;21.33;30.29;101345.77;104277;1294;60609;-83
2024/03/08 00:55:54;;;;;;;;;;;;;;;21.33;30.41;101342.75;104665;1294;60541;-84
2024/03/08 00:58:20;;;;;;;;;;;;;;;21.33;30.45;101337.89;104811;1294;60358;-83
2024/03/08 01:00:47;;;;;;;;;;;;;;;21.33;30.37;101338.06;104396;1297;59296;-83
2024/03/08 01:03:13;;;;;;;;;;;;;;;21.34;30.36;101338.91;104324;1294;60612;-83
2024/03/08 01:05:39;;;;;;;;;;;;;;;21.34;30.31;101338.93;104292;1299;60401;-83
2024/03/08 01:08:05;;;;;;;;;;;;;;;21.34;30.50;101334.98;104562;1294;60398;-83
2024/03/08 01:10:30;;;;;;;;;;;;;;;21.34;30.41;101329.98;104584;1294;73692;-83
2024/03/08 01:12:56;;;;;;;;;;;;;;;21.34;30.41;101331.23;104427;1294;60612;-83
2024/03/08 01:15:23;;;;;;;;;;;;;;;21.34;30.46;101331.05;104355;1294;60476;-83
2024/03/08 01:17:50;;;;;;;;;;;;;;;21.34;30.50;101332.10;104611;1294;59486;-83
2024/03/08 01:20:15;;;;;;;;;;;;;;;21.34;30.51;101330.52;104558;1295;60498;-83
2024/03/08 01:22:41;;;;;;;;;;;;;;;21.34;30.38;101329.58;104369;1294;60508;-83
2024/03/08 01:25:08;;;;;;;;;;;;;;;21.35;30.47;101335.48;104618;1293;60585;-84
2024/03/08 01:27:35;;;;;;;;;;;;;;;21.34;30.42;101332.09;104460;1294;61248;-84
2024/03/08 01:30:01;;;;;;;;;;;;;;;21.35;30.41;101331.70;104623;1298;60599;-83
2024/03/08 01:32:27;;;;;;;;;;;;;;;21.35;30.34;101330.79;104445;1294;60469;-83
2024/03/08 01:34:53;;;;;;;;;;;;;;;21.35;30.47;101327.74;104485;1294;60509;-84
2024/03/08 01:37:18;;;;;;;;;;;;;;;21.35;30.55;101327.56;104749;1294;60595;-83
2024/03/08 01:39:44;;;;;;;;;;;;;;;21.35;30.42;101331.68;104650;1294;60514;-84
2024/03/08 01:42:12;;;;;;;;;;;;;;;21.35;30.42;101331.67;104260;1294;74502;-83
2024/03/08 01:44:39;;;;;;;;;;;;;;;21.36;30.55;101335.02;104348;1297;60489;-83
2024/03/08 01:47:04;;;;;;;;;;;;;;;21.36;30.49;101335.55;104528;1294;60490;-83
2024/03/08 01:49:30;;;;;;;;;;;;;;;21.36;30.42;101337.71;104341;1295;60441;-83
2024/03/08 01:51:56;;;;;;;;;;;;;;;21.36;30.55;101336.48;104179;1294;60629;-84
2024/03/08 01:54:22;;;;;;;;;;;;;;;21.36;30.54;101337.71;104453;1294;60454;-83
2024/03/08 01:56:47;;;;;;;;;;;;;;;21.36;30.37;101340.57;104310;1294;60581;-83
2024/03/08 01:59:14;;;;;;;;;;;;;;;21.36;30.39;101341.62;104375;1294;60592;-84
2024/03/08 02:01:40;;;;;;;;;;;;;;;21.37;30.44;101344.66;104625;1294;72491;-83
2024/03/08 02:04:08;;;;;;;;;;;;;;;21.36;30.45;101345.56;104548;1294;60678;-83
2024/03/08 02:06:34;;;;;;;;;;;;;;;21.37;30.34;101345.20;104232;1295;60474;-84
2024/03/08 02:08:59;;;;;;;;;;;;;;;21.37;30.35;101347.48;103927;1294;712619;-83
2024/03/08 02:11:25;;;;;;;;;;;;;;;21.37;30.52;101343.39;104580;1294;60599;-84
2024/03/08 02:13:50;;;;;;;;;;;;;;;21.37;30.51;101347.67;104132;1295;60617;-84
2024/03/08 02:16:22;;;;;;;;;;;;;;;21.37;30.40;101350.35;104527;1294;60605;-84
2024/03/08 02:18:52;;;;;;;;;;;;;;;21.38;30.44;101351.05;104776;1294;59799;-85
2024/03/08 02:21:20;;;;;;;;;;;;;;;21.37;30.46;101349.98;104329;1294;60524;-84
2024/03/08 02:23:46;;;;;;;;;;;;;;;21.37;30.43;101345.34;104271;1294;72601;-82
2024/03/08 02:26:12;;;;;;;;;;;;;;;21.37;30.46;101342.29;104510;1294;60487;-83
2024/03/08 02:28:37;;;;;;;;;;;;;;;21.38;30.55;101344.42;104308;1294;60584;-83
2024/03/08 02:31:07;;;;;;;;;;;;;;;21.38;30.52;101344.39;104294;1294;60543;-84
2024/03/08 02:33:33;;;;;;;;;;;;;;;21.38;30.50;101341.88;104367;1294;73304;-84
2024/03/08 02:35:59;;;;;;;;;;;;;;;21.38;30.43;101342.96;104362;1294;60540;-84
2024/03/08 02:38:25;;;;;;;;;;;;;;;21.38;30.46;101340.10;104265;1299;60493;-84
2024/03/08 02:40:51;;;;;;;;;;;;;;;21.38;30.52;101346.16;104421;1294;60462;-83
2024/03/08 02:43:17;;;;;;;;;;;;;;;21.38;30.47;101346.69;104286;1294;60524;-83
2024/03/08 02:45:43;;;;;;;;;;;;;;;21.38;30.50;101347.40;104356;1295;60709;-83
2024/03/08 02:48:10;;;;;;;;;;;;;;;21.39;30.55;101348.81;104528;1294;60612;-84
2024/03/08 02:50:36;;;;;;;;;;;;;;;21.38;30.42;101349.23;104539;1294;60677;-83
2024/03/08 02:53:02;;;;;;;;;;;;;;;21.39;30.52;101348.98;104389;1294;60681;-83
2024/03/08 02:55:27;;;;;;;;;;;;;;;21.39;30.46;101343.59;104575;1295;60520;-83
2024/03/08 02:58:06;;;;;;;;;;;;;;;;;;;;;
2024/03/08 03:00:34;;;;;;;;;;;;;;;21.39;30.47;101345.55;103597;1294;60464;-81
2024/03/08 03:03:02;;;;;;;;;;;;;;;21.39;30.50;101347.90;103666;1294;60655;-82
2024/03/08 03:05:28;;;;;;;;;;;;;;;21.39;30.46;101350.77;103603;1294;72273;-84
2024/03/08 03:07:54;;;;;;;;;;;;;;;21.38;30.42;101354.02;103613;1298;60589;-84
2024/03/08 03:10:21;;;;;;;;;;;;;;;21.39;30.42;101354.54;103688;1294;60608;-84
2024/03/08 03:12:48;;;;;;;;;;;;;;;21.38;30.40;101349.41;103607;1295;60605;-84
2024/03/08 03:15:14;;;;;;;;;;;;;;;21.38;30.43;101353.52;103293;1294;61120;-84
2024/03/08 03:17:42;;;;;;;;;;;;;;;21.38;30.53;101358.21;103271;1294;60592;-84
2024/03/08 03:20:13;;;;;;;;;;;;;;;21.37;30.46;101354.48;103628;1294;60617;-84
2024/03/08 03:22:38;;;;;;;;;;;;;;;21.36;30.45;101352.90;103272;1294;60486;-84
2024/03/08 03:25:06;;;;;;;;;;;;;;;21.36;30.42;101353.11;103594;1294;60567;-84
2024/03/08 03:27:37;;;;;;;;;;;;;;;21.36;30.36;101347.76;103307;1294;72510;-84
2024/03/08 03:30:20;;;;;;;;;;;;;;;21.35;30.33;101349.39;103724;1294;60620;-84
2024/03/08 03:32:54;;;;;;;;;;;;;;;21.35;30.38;101346.72;103273;1296;60554;-84
2024/03/08 03:35:22;;;;;;;;;;;;;;;21.35;30.35;101345.81;103659;1294;72367;-84
2024/03/08 03:38:06;;;;;;;;;;;;;;;21.35;30.31;101343.33;103548;1299;60572;-84
2024/03/08 03:40:52;;;;;;;;;;;;;;;21.35;30.39;101342.63;103346;1294;60488;-84
2024/03/08 03:43:18;;;;;;;;;;;;;;;21.35;30.45;101346.73;103528;1294;60461;-84
2024/03/08 03:45:43;;;;;;;;;;;;;;;21.34;30.40;101345.70;103500;1295;60650;-84
2024/03/08 03:48:09;;;;;;;;;;;;;;;21.34;30.33;101346.96;103583;1295;60508;-84
2024/03/08 03:50:35;;;;;;;;;;;;;;;21.34;30.35;101349.29;103228;1294;60532;-84
2024/03/08 03:53:02;;;;;;;;;;;;;;;21.35;30.32;101349.27;103073;1300;60509;-84
2024/03/08 03:55:28;;;;;;;;;;;;;;;21.34;30.40;101352.14;103189;1294;60473;-84
2024/03/08 03:57:54;;;;;;;;;;;;;;;21.34;30.40;101353.41;103579;1294;60508;-84
2024/03/08 04:00:19;;;;;;;;;;;;;;;21.34;30.37;101352.35;103291;1294;60643;-84
2024/03/08 04:02:46;;;;;;;;;;;;;;;21.34;30.49;101353.95;103261;1297;60632;-83
2024/03/08 04:05:12;;;;;;;;;;;;;;;21.34;30.36;101356.64;103217;1297;60531;-83
2024/03/08 04:07:37;;;;;;;;;;;;;;;21.35;30.33;101355.71;103276;1297;60661;-83
2024/03/08 04:10:03;;;;;;;;;;;;;;;21.34;30.33;101357.52;103147;1298;60753;-84
2024/03/08 04:12:29;;;;;;;;;;;;;;;21.34;30.38;101358.05;103020;1299;60531;-84
2024/03/08 04:14:55;;;;;;;;;;;;;;;21.34;30.46;101356.46;102826;1300;60522;-84
2024/03/08 04:17:21;;;;;;;;;;;;;;;21.35;30.26;101356.05;102859;1300;60564;-83
2024/03/08 04:19:48;;;;;;;;;;;;;;;21.34;30.35;101360.02;102959;1300;73475;-83
2024/03/08 04:22:14;;;;;;;;;;;;;;;21.34;30.35;101356.08;102700;1300;73603;-83
2024/03/08 04:24:40;;;;;;;;;;;;;;;21.35;30.34;101358.57;103147;1299;60619;-83
2024/03/08 04:27:06;;;;;;;;;;;;;;;21.35;30.39;101361.79;102828;1300;60653;-83
2024/03/08 04:29:32;;;;;;;;;;;;;;;21.34;30.33;101357.17;102842;1303;60584;-83
2024/03/08 04:31:58;;;;;;;;;;;;;;;21.35;30.24;101356.95;103124;1299;60564;-83
2024/03/08 04:34:24;;;;;;;;;;;;;;;21.34;30.20;101359.66;103169;1297;60497;-83
2024/03/08 04:36:50;;;;;;;;;;;;;;;21.35;30.33;101357.86;103269;1297;60758;-83
2024/03/08 04:39:15;;;;;;;;;;;;;;;21.34;30.31;101360.94;103056;1302;60748;-83
2024/03/08 04:41:43;;;;;;;;;;;;;;;21.35;30.31;101365.17;103141;1300;72498;-83
2024/03/08 04:44:09;;;;;;;;;;;;;;;21.36;30.41;101366.70;103113;1297;73387;-83
2024/03/08 04:46:35;;;;;;;;;;;;;;;21.38;30.39;101365.02;103148;1297;60650;-83
2024/03/08 04:49:00;;;;;;;;;;;;;;;21.39;30.35;101367.98;102992;1297;60705;-83
2024/03/08 04:51:26;;;;;;;;;;;;;;;21.41;30.35;101369.83;103240;1294;60529;-83
2024/03/08 04:53:53;;;;;;;;;;;;;;;21.42;30.35;101374.06;103075;1300;60598;-83
2024/03/08 04:56:19;;;;;;;;;;;;;;;21.43;30.36;101375.02;103099;1301;60513;-83
2024/03/08 04:58:46;;;;;;;;;;;;;;;21.44;30.52;101378.40;103227;1293;60638;-83
2024/03/08 05:01:12;;;;;;;;;;;;;;;21.46;30.44;101381.35;103101;1295;60448;-83
2024/03/08 05:03:38;;;;;;;;;;;;;;;21.46;30.28;101379.88;103097;1295;60956;-82
2024/03/08 05:06:04;;;;;;;;;;;;;;;21.47;30.34;101386.47;103077;1295;60688;-82
2024/03/08 05:08:30;;;;;;;;;;;;;;;21.47;30.47;101383.92;103086;1295;60598;-82
2024/03/08 05:10:55;;;;;;;;;;;;;;;21.48;30.35;101391.23;103154;1294;60550;-82
2024/03/08 05:13:21;;;;;;;;;;;;;;;21.48;30.26;101395.33;103580;1296;60515;-82
2024/03/08 05:15:50;;;;;;;;;;;;;;;21.48;30.30;101395.16;103616;1294;60671;-82
2024/03/08 05:18:16;;;;;;;;;;;;;;;21.48;30.36;101397.45;102840;1297;60625;-81
2024/03/08 05:20:42;;;;;;;;;;;;;;;21.49;30.37;101404.62;102891;1294;60992;-81
2024/03/08 05:23:08;;;;;;;;;;;;;;;21.48;30.34;101404.98;102824;1295;60598;-81
2024/03/08 05:25:33;;;;;;;;;;;;;;;21.49;30.33;101403.02;103415;1297;61720;-82
2024/03/08 05:27:59;;;;;;;;;;;;;;;21.48;30.37;101410.38;103363;1295;60870;-82
2024/03/08 05:30:25;;;;;;;;;;;;;;;21.48;30.35;101412.71;103032;1294;60599;-81
2024/03/08 05:32:50;;;;;;;;;;;;;;;21.48;30.28;101412.54;103232;1295;60451;-81
2024/03/08 05:35:17;;;;;;;;;;;;;;;21.47;30.23;101418.33;102934;1295;60565;-82
2024/03/08 05:37:42;;;;;;;;;;;;;;;21.47;30.15;101419.60;103320;1293;60590;-83
2024/03/08 05:40:11;;;;;;;;;;;;;;;21.45;30.12;101421.65;102813;1295;60655;-79
2024/03/08 05:42:37;;;;;;;;;;;;;;;21.41;30.11;101421.35;102573;1296;60858;-79
2024/03/08 05:45:14;;;;;;;;;;;;;;;21.38;30.15;101428.55;103075;1294;60501;-83
2024/03/08 05:47:40;;;;;;;;;;;;;;;21.34;30.15;101429.50;103235;1295;73645;-83
2024/03/08 05:50:11;;;;;;;;;;;;;;;21.29;30.13;101429.45;103066;1295;60595;-84
2024/03/08 05:52:38;;;;;;;;;;;;;;;21.23;30.00;101433.02;103486;1295;60517;-82
2024/03/08 05:55:07;;;;;;;;;;;;;;;21.16;29.93;101433.29;103849;1295;73314;-82
2024/03/08 05:57:33;;;;;;;;;;;;;;;21.09;30.01;101438.20;104432;1294;155731;-80
2024/03/08 05:59:59;;;;;;;;;;;;;;;21.03;29.98;101445.94;103571;1295;59433;-82
2024/03/08 06:02:24;;;;;;;;;;;;;;;20.96;30.07;101445.63;103573;1295;60454;-83
2024/03/08 06:04:50;;;;;;;;;;;;;;;20.92;30.02;101442.81;103489;1295;60540;-83
2024/03/08 06:07:17;;;;;;;;;;;;;;;20.89;29.96;101447.29;103818;1295;60545;-81
2024/03/08 06:09:46;;;;;;;;;;;;;;;20.86;29.89;101446.91;104120;1294;60515;-83
2024/03/08 06:12:11;;;;;;;;;;;;;;;20.85;29.99;101444.62;103807;1295;60477;-82
2024/03/08 06:14:37;;;;;;;;;;;;;;;20.86;30.03;101442.44;103651;1298;60511;-81
2024/03/08 06:17:05;;;;;;;;;;;;;;;20.88;30.13;101447.34;104020;1295;60604;-83
2024/03/08 06:19:31;;;;;;;;;;;;;;;20.92;29.90;101450.16;103913;1295;60564;-84
2024/03/08 06:21:57;;;;;;;;;;;;;;;20.94;29.91;101458.09;103896;1295;59371;-83
2024/03/08 06:24:23;;;;;;;;;;;;;;;20.96;30.08;101457.06;103975;1294;59309;-82
2024/03/08 06:26:48;;;;;;;;;;;;;;;20.98;29.95;101458.02;104079;1295;60575;-82
2024/03/08 06:29:15;;;;;;;;;;;;;;;20.98;29.95;101457.82;104539;1294;60519;-82
2024/03/08 06:31:40;;;;;;;;;;;;;;;21.00;29.88;101460.07;104682;1294;59269;-81
2024/03/08 06:34:07;;;;;;;;;;;;;;;21.01;29.98;101457.29;104666;1294;59423;-83
2024/03/08 06:36:34;;;;;;;;;;;;;;;21.03;29.88;101455.56;104633;1294;72487;-83
2024/03/08 06:39:00;;;;;;;;;;;;;;;21.06;29.96;101459.36;104748;1293;60520;-82
2024/03/08 06:41:26;;;;;;;;;;;;;;;21.08;29.89;101460.30;104592;1297;59611;-82
2024/03/08 06:43:56;;;;;;;;;;;;;;;21.10;29.96;101462.85;104659;1294;59185;-83
2024/03/08 06:46:22;;;;;;;;;;;;;;;21.12;29.90;101463.08;104457;1294;72497;-81
2024/03/08 06:48:49;;;;;;;;;;;;;;;21.14;29.97;101463.67;104589;1295;60553;-82
2024/03/08 06:51:14;;;;;;;;;;;;;;;21.16;29.90;101465.18;104552;1294;59083;-82
2024/03/08 06:53:40;;;;;;;;;;;;;;;21.17;30.06;101463.70;104626;1293;60341;-81
2024/03/08 06:56:05;;;;;;;;;;;;;;;21.13;29.79;101468.18;103919;1295;62956;-82
2024/03/08 06:58:31;;;;;;;;;;;;;;;21.08;30.03;101467.61;103821;1295;61342;-82
2024/03/08 07:01:00;;;;;;;;;;;;;;;21.06;30.33;101465.95;103800;1295;76361;-81
2024/03/08 07:03:29;;;;;;;;;;;;;;;21.04;30.45;101466.45;103814;1295;61289;-80
2024/03/08 07:05:56;;;;;;;;;;;;;;;21.03;30.44;101467.42;104092;1294;61422;-80
2024/03/08 07:08:23;;;;;;;;;;;;;;;21.03;30.49;101466.82;104018;1294;72506;-80
2024/03/08 07:10:49;;;;;;;;;;;;;;;21.03;30.76;101467.53;103817;1295;61381;-82
2024/03/08 07:13:15;;;;;;;;;;;;;;;21.04;30.51;101469.84;103825;1295;61305;-82
2024/03/08 07:15:40;;;;;;;;;;;;;;;21.04;30.54;101470.33;103913;1294;61286;-81
2024/03/08 07:18:08;;;;;;;;;;;;;;;21.05;30.37;101472.45;103746;1295;61461;-81
2024/03/08 07:20:37;;;;;;;;;;;;;;;21.06;30.43;101472.02;104550;1294;74499;-81
2024/03/08 07:23:03;;;;;;;;;;;;;;;21.07;30.49;101470.34;104433;1295;59988;-82
2024/03/08 07:25:29;;;;;;;;;;;;;;;21.08;30.22;101473.33;104544;1295;61334;-82
2024/03/08 07:27:55;;;;;;;;;;;;;;;21.09;30.37;101472.36;104499;1294;62024;-81
2024/03/08 07:33:06;;;;;;;;;;;;;;;21.14;30.36;101472.29;104393;1295;60543;-80
2024/03/08 07:35:32;;;;;;;;;;;;;;;21.15;30.35;101468.98;104045;1295;61320;-81
2024/03/08 07:37:59;;;;;;;;;;;;;;;21.16;30.24;101469.42;103763;1294;61375;-81
2024/03/08 07:40:25;;;;;;;;;;;;;;;21.18;30.26;101476.16;103881;1295;74419;-81
2024/03/08 07:42:51;;;;;;;;;;;;;;;21.19;30.23;101474.11;103762;1295;61353;-81
2024/03/08 07:45:17;;;;;;;;;;;;;;;21.21;30.33;101477.03;103914;1300;61436;-80
2024/03/08 07:47:42;;;;;;;;;;;;;;;21.22;30.36;101477.86;103837;1295;61201;-81
2024/03/08 07:50:08;;;;;;;;;;;;;;;21.23;30.26;101475.10;103845;1295;61404;-81
2024/03/08 07:52:34;;;;;;;;;;;;;;;21.24;30.48;101473.41;104805;1294;61944;-81
2024/03/08 07:55:00;;;;;;;;;;;;;;;21.25;30.48;101477.84;104628;1295;61384;-80
2024/03/08 07:57:26;;;;;;;;;;;;;;;21.26;30.59;101480.48;104752;1295;61254;-83
2024/03/08 07:59:52;;;;;;;;;;;;;;;21.27;30.74;101478.48;104722;1294;60214;-80
2024/03/08 08:02:18;;;;;;;;;;;;;;;21.26;30.93;101483.33;104666;1295;61345;-81
2024/03/08 08:04:44;;;;;;;;;;;;;;;21.26;30.87;101484.80;104678;1295;59269;-81
2024/03/08 08:07:11;;;;;;;;;;;;;;;21.26;31.07;101479.04;104636;1294;59655;-82
2024/03/08 08:09:37;;;;;;;;;;;;;;;21.26;31.18;101476.33;104635;1294;61385;-82
2024/03/08 08:12:03;;;;;;;;;;;;;;;21.27;31.13;101478.48;104657;1294;61411;-80
2024/03/08 08:14:29;;;;;;;;;;;;;;;21.28;31.15;101481.80;104553;1294;61395;-81
2024/03/08 08:16:57;;;;;;;;;;;;;;;21.29;31.15;101482.63;104433;1294;62191;-81
2024/03/08 08:19:22;;;;;;;;;;;;;;;21.31;31.04;101483.98;103984;1294;61981;-81
2024/03/08 08:21:48;;;;;;;;;;;;;;;21.32;31.03;101486.58;104031;1295;61779;-80
2024/03/08 08:24:14;;;;;;;;;;;;;;;21.33;31.01;101483.11;104059;1297;60939;-81
2024/03/08 08:26:40;;;;;;;;;;;;;;;21.34;31.00;101482.16;103915;1294;61314;-80
2024/03/08 08:29:07;;;;;;;;;;;;;;;21.35;30.95;101479.61;103658;1295;60334;-80
2024/03/08 08:31:33;;;;;;;;;;;;;;;21.35;30.80;101479.06;104051;1294;61410;-81
2024/03/08 08:33:59;;;;;;;;;;;;;;;21.35;30.85;101479.07;103786;1295;60381;-81
2024/03/08 08:36:25;;;;;;;;;;;;;;;21.34;30.78;101471.95;103655;1300;62042;-82
2024/03/08 08:38:50;;;;;;;;;;;;;;;21.33;30.75;101474.34;103748;1295;64194;-82
2024/03/08 08:41:17;;;;;;;;;;;;;;;21.32;30.63;101474.74;104042;1298;61262;-83
2024/03/08 08:43:43;;;;;;;;;;;;;;;21.32;30.76;101476.41;104095;1294;61336;-83
2024/03/08 08:46:13;;;;;;;;;;;;;;;21.31;30.47;101480.92;104705;1294;61382;-80
2024/03/08 08:48:41;;;;;;;;;;;;;;;21.30;30.60;101479.53;104836;1294;61248;-82
2024/03/08 08:51:12;;;;;;;;;;;;;;;21.30;30.59;101475.05;104524;1296;72487;-80
2024/03/08 08:53:43;;;;;;;;;;;;;;;21.28;30.47;101481.09;104787;1294;74439;-84
2024/03/08 08:56:08;;;;;;;;;;;;;;;21.18;30.54;101475.57;104960;1295;61359;-82
2024/03/08 08:58:34;;;;;;;;;;;;;;;21.13;30.44;101479.16;105055;1294;61326;-83
2024/03/08 09:01:00;;;;;;;;;;;;;;;21.03;30.47;101478.14;104885;1295;61273;-84
2024/03/08 09:03:28;;;;;;;;;;;;;;;21.03;30.89;101476.02;105015;1295;61078;-83
2024/03/08 09:05:53;;;;;;;;;;;;;;;21.03;30.93;101475.46;104996;1295;59188;-83
2024/03/08 09:08:19;;;;;;;;;;;;;;;21.04;31.17;101477.91;104896;1295;59392;-83
2024/03/08 09:10:45;;;;;;;;;;;;;;;21.06;31.38;101479.39;105137;1295;60243;-83
2024/03/08 09:13:11;;;;;;;;;;;;;;;21.08;31.43;101478.89;104830;1294;59688;-83
2024/03/08 09:15:40;;;;;;;;;;;;;;;21.12;31.80;101478.65;104720;1294;59378;-82
2024/03/08 09:18:06;;;;;;;;;;;;;;;21.19;32.39;101478.60;104805;1297;61260;-82
2024/03/08 09:20:32;;;;;;;;;;;;;;;21.23;32.28;101481.21;104926;1294;61392;-82
2024/03/08 09:22:57;;;;;;;;;;;;;;;21.24;31.99;101483.64;105791;1295;58988;-82
2024/03/08 09:25:23;;;;;;;;;;;;;;;21.25;32.06;101482.70;105810;1294;59436;-82
2024/03/08 09:27:49;;;;;;;;;;;;;;;21.25;31.88;101485.34;105817;1294;58943;-82
2024/03/08 09:30:15;;;;;;;;;;;;;;;21.26;31.84;101484.95;105724;1295;60261;-80
2024/03/08 09:32:43;;;;;;;;;;;;;;;21.28;31.79;101485.03;104214;1295;61350;-82
2024/03/08 09:35:10;;;;;;;;;;;;;;;21.29;31.54;101491.42;104449;1294;74363;-82
2024/03/08 09:37:37;;;;;;;;;;;;;;;21.29;31.58;101489.06;104607;1295;59295;-82
2024/03/08 09:40:09;;;;;;;;;;;;;;;21.29;31.60;101489.11;104671;1295;61267;-81
2024/03/08 09:42:37;;;;;;;;;;;;;;;21.28;31.37;101493.42;104459;1299;71920;-82
2024/03/08 09:45:10;;;;;;;;;;;;;;;21.25;31.33;101492.67;104698;1295;74549;-82
2024/03/08 09:47:38;;;;;;;;;;;;;;;21.00;31.02;101488.17;104654;1294;60116;-82
2024/03/08 09:50:05;;;;;;;;;;;;;;;20.84;31.14;101484.83;104923;1294;61368;-82
2024/03/08 09:52:32;;;;;;;;;;;;;;;20.74;31.02;101483.95;105095;1297;72628;-79
2024/03/08 09:55:00;;;;;;;;;;;;;;;20.62;31.44;101486.08;105008;1294;74472;-81
2024/03/08 09:57:25;;;;;;;;;;;;;;;20.47;31.74;101489.96;104818;1294;61327;-84
2024/03/08 09:59:51;;;;;;;;;;;;;;;20.39;31.90;101490.08;104420;1294;61410;-80
2024/03/08 10:02:17;;;;;;;;;;;;;;;20.41;32.21;101492.24;104144;1295;59372;-81
2024/03/08 10:04:42;;;;;;;;;;;;;;;20.45;32.29;101496.52;104239;1295;60152;-81
2024/03/08 10:07:08;;;;;;;;;;;;;;;20.40;32.47;101499.47;104354;1299;61764;-80
2024/03/08 10:09:33;;;;;;;;;;;;;;;20.41;32.54;101490.52;104466;1294;60314;-81
2024/03/08 10:11:59;;;;;;;;;;;;;;;20.34;32.37;101495.89;104366;1295;61838;-80
2024/03/08 10:14:27;;;;;;;;;;;;;;;20.18;32.32;101490.73;104323;1294;60140;-82
2024/03/08 10:16:53;;;;;;;;;;;;;;;20.15;32.47;101491.61;103991;1295;74819;-82
2024/03/08 10:19:18;;;;;;;;;;;;;;;20.19;32.52;101489.41;103989;1294;61262;-81
2024/03/08 10:21:53;;;;;;;;;;;;;;;20.24;32.48;101493.42;103893;1295;61335;-81
2024/03/08 10:24:19;;;;;;;;;;;;;;;20.28;32.39;101486.40;104011;1295;71314;-80
2024/03/08 10:26:44;;;;;;;;;;;;;;;20.34;32.39;101485.17;103851;1295;61362;-80
2024/03/08 10:29:10;;;;;;;;;;;;;;;20.39;32.31;101482.35;104174;1294;61395;-81
2024/03/08 10:31:35;;;;;;;;;;;;;;;20.44;32.38;101482.61;104175;1295;61305;-81
2024/03/08 10:34:01;;;;;;;;;;;;;;;20.50;32.34;101481.02;103844;1295;59491;-81
2024/03/08 10:36:27;;;;;;;;;;;;;;;20.57;32.43;101479.58;103914;1295;61167;-80
2024/03/08 10:38:53;;;;;;;;;;;;;;;20.63;32.52;101479.93;103636;1295;61366;-80
2024/03/08 10:41:18;;;;;;;;;;;;;;;20.69;32.58;101480.47;104060;1295;61226;-80
2024/03/08 10:43:49;;;;;;;;;;;;;;;20.74;32.50;101481.27;103586;1295;61378;-80
2024/03/08 10:46:18;;;;;;;;;;;;;;;20.78;32.48;101477.30;103756;1299;73490;-81
2024/03/08 10:48:44;;;;;;;;;;;;;;;20.82;32.53;101474.21;103584;1295;73702;-81
2024/03/08 10:51:11;;;;;;;;;;;;;;;20.87;32.69;101477.31;103597;1294;61286;-81
2024/03/08 10:53:41;;;;;;;;;;;;;;;20.91;32.73;101472.94;105144;1295;61339;-80
2024/03/08 10:56:07;;;;;;;;;;;;;;;20.95;32.78;101470.40;103821;1295;73088;-81
2024/03/08 10:58:34;;;;;;;;;;;;;;;20.95;32.65;101468.57;104733;1295;74618;-81
2024/03/08 11:01:00;;;;;;;;;;;;;;;20.95;32.48;101465.75;104756;1299;61336;-82
2024/03/08 11:03:44;;;;;;;;;;;;;;;20.92;32.62;101460.00;105213;1294;61204;-82
2024/03/08 11:06:15;;;;;;;;;;;;;;;20.79;32.41;101456.81;104677;1295;72636;-81
2024/03/08 11:08:41;;;;;;;;;;;;;;;20.71;32.44;101453.69;104424;1299;75432;-82
2024/03/08 11:11:27;;;;;;;;;;;;;;;20.67;32.48;101455.90;104202;1295;61301;-85
2024/03/08 11:13:54;;;;;;;;;;;;;;;20.60;32.34;101452.55;105807;1295;60061;-82
2024/03/08 11:16:40;;;;;;;;;;;;;;;20.55;32.27;101453.04;104987;1294;61306;-82
2024/03/08 11:19:12;;;;;;;;;;;;;;;20.53;32.19;101455.09;104879;1295;74288;-80
2024/03/08 11:21:40;;;;;;;;;;;;;;;20.50;32.14;101453.32;104995;1294;60766;-80
2024/03/08 11:24:07;;;;;;;;;;;;;;;20.50;32.14;101446.35;104964;1294;61079;-80
2024/03/08 11:26:36;;;;;;;;;;;;;;;20.51;31.99;101444.13;104497;1299;72217;-81
2024/03/08 11:29:21;;;;;;;;;;;;;;;20.53;32.14;101439.23;104523;1294;74411;-80
2024/03/08 11:31:47;;;;;;;;;;;;;;;20.55;32.07;101439.23;103890;1297;61402;-80
2024/03/08 11:34:16;;;;;;;;;;;;;;;20.59;31.86;101440.27;103969;1294;60365;-82
2024/03/08 11:36:42;;;;;;;;;;;;;;;20.63;32.03;101439.70;103923;1298;72402;-80
2024/03/08 11:39:14;;;;;;;;;;;;;;;20.67;31.87;101439.27;104043;1295;61411;-82
2024/03/08 11:41:45;;;;;;;;;;;;;;;20.70;31.73;101438.73;104361;1295;61281;-82
2024/03/08 11:44:15;;;;;;;;;;;;;;;20.72;31.87;101432.92;105429;1294;59553;-81
2024/03/08 11:46:46;;;;;;;;;;;;;;;20.73;31.78;101430.52;105630;1294;73564;-82
2024/03/08 11:49:12;;;;;;;;;;;;;;;20.74;31.69;101431.16;105470;1294;75026;-81
2024/03/08 11:51:38;;;;;;;;;;;;;;;20.75;31.71;101432.94;104562;1294;60147;-81
2024/03/08 11:54:06;;;;;;;;;;;;;;;20.75;31.53;101430.80;104410;1294;61224;-81
2024/03/08 11:56:35;;;;;;;;;;;;;;;20.73;31.48;101430.32;104617;1300;72439;-82
2024/03/08 11:59:01;;;;;;;;;;;;;;;20.67;31.42;101427.81;103483;1294;73454;-83
2024/03/08 12:01:27;;;;;;;;;;;;;;;20.64;31.22;101420.84;103964;1294;61672;-81
2024/03/08 12:03:53;;;;;;;;;;;;;;;20.60;31.20;101417.14;104142;1295;61497;-80
2024/03/08 12:06:19;;;;;;;;;;;;;;;20.47;31.11;101416.45;104098;1294;59696;-82
2024/03/08 12:08:49;;;;;;;;;;;;;;;20.36;31.16;101417.48;104341;1294;61395;-80
2024/03/08 12:11:14;;;;;;;;;;;;;;;20.09;30.85;101419.39;105315;1295;59970;-81
2024/03/08 12:13:41;;;;;;;;;;;;;;;19.81;30.99;101418.45;105197;1295;59390;-80
2024/03/08 12:16:07;;;;;;;;;;;;;;;19.80;31.16;101417.11;105045;1300;59446;-80
2024/03/08 12:18:33;;;;;;;;;;;;;;;19.86;31.08;101417.66;104960;1294;59360;-81
2024/03/08 12:21:13;;;;;;;;;;;;;;;19.92;31.14;101412.46;104341;1294;59486;-82
2024/03/08 12:23:39;;;;;;;;;;;;;;;19.99;31.21;101415.16;104552;1294;60109;-80
2024/03/08 12:26:15;;;;;;;;;;;;;;;20.05;31.07;101413.86;104553;1295;59803;-81
2024/03/08 12:28:44;;;;;;;;;;;;;;;20.13;31.00;101406.83;104363;1294;74622;-81
2024/03/08 12:31:12;;;;;;;;;;;;;;;20.20;31.08;101406.05;104305;1298;61408;-81